createdAt,value
2023-01-20T00:00:29.060Z,8.62
2023-01-20T00:02:56.276Z,8.62
2023-01-20T00:05:23.303Z,8.60
2023-01-20T00:07:50.226Z,8.58
2023-01-20T00:10:17.744Z,8.51
2023-01-20T00:35:57.784Z,7.62
2023-01-20T00:38:25.023Z,7.69
2023-01-20T00:40:55.617Z,7.80
2023-01-20T00:43:22.734Z,7.90
2023-01-20T00:45:49.876Z,7.97
2023-01-20T00:48:16.792Z,8.03
2023-01-20T00:50:43.851Z,8.08
2023-01-20T00:53:10.950Z,8.13
2023-01-20T00:55:37.877Z,8.18
2023-01-20T00:58:04.971Z,8.22
2023-01-20T01:00:32.024Z,8.22
2023-01-20T01:02:59.223Z,8.20
2023-01-20T01:05:26.375Z,8.24
2023-01-20T01:07:53.620Z,8.29
2023-01-20T01:10:20.715Z,8.32
2023-01-20T01:12:47.828Z,8.34
2023-01-20T01:15:15.458Z,8.32
2023-01-20T01:17:44.096Z,8.28
2023-01-20T01:20:13.376Z,8.29
2023-01-20T01:22:40.520Z,8.31
2023-01-20T01:25:07.620Z,8.30
2023-01-20T01:27:34.670Z,8.26
2023-01-20T01:30:01.739Z,8.22
2023-01-20T01:32:28.755Z,8.23
2023-01-20T01:34:55.822Z,8.24
2023-01-20T01:37:23.083Z,8.28
2023-01-20T01:39:50.007Z,8.29
2023-01-20T01:42:19.815Z,8.26
2023-01-20T01:45:09.999Z,8.15
2023-01-20T01:48:01.982Z,8.14
2023-01-20T01:50:45.664Z,8.14
2023-01-20T01:53:13.504Z,8.12
2023-01-20T01:55:43.967Z,8.10
2023-01-20T01:58:13.144Z,8.02
2023-01-20T02:00:40.240Z,7.97
2023-01-20T02:03:07.227Z,7.96
2023-01-20T02:05:34.268Z,7.95
2023-01-20T02:08:01.276Z,7.95
2023-01-20T02:10:28.455Z,7.93
2023-01-20T02:12:55.763Z,7.87
2023-01-20T02:15:26.421Z,7.85
2023-01-20T02:18:23.531Z,7.85
2023-01-20T02:20:56.622Z,7.84
2023-01-20T02:23:47.343Z,7.79
2023-01-20T02:26:26.691Z,7.70
2023-01-20T02:29:24.503Z,7.67
2023-01-20T02:32:06.853Z,7.66
2023-01-20T02:34:42.945Z,7.65
2023-01-20T02:37:22.429Z,7.64
2023-01-20T02:39:58.444Z,7.58
2023-01-20T02:42:27.984Z,7.52
2023-01-20T02:45:18.609Z,7.50
2023-01-20T02:48:12.635Z,7.49
2023-01-20T02:50:56.645Z,7.46
2023-01-20T02:53:23.597Z,7.40
2023-01-20T02:55:51.365Z,7.32
2023-01-20T02:58:32.903Z,7.29
2023-01-20T03:01:24.854Z,7.30
2023-01-20T03:03:52.954Z,7.29
2023-01-20T03:06:22.984Z,7.28
2023-01-20T03:08:51.508Z,7.27
2023-01-20T03:11:18.476Z,7.22
2023-01-20T03:13:55.023Z,7.23
2023-01-20T03:16:23.231Z,7.25
2023-01-20T03:18:50.439Z,7.27
2023-01-20T03:21:17.638Z,7.29
2023-01-20T03:23:55.774Z,7.32
2023-01-20T03:26:23.254Z,7.36
2023-01-20T03:28:50.295Z,7.35
2023-01-20T03:31:28.217Z,7.38
2023-01-20T03:33:57.583Z,7.43
2023-01-20T03:36:25.592Z,7.43
2023-01-20T03:38:53.035Z,7.42
2023-01-20T03:41:32.080Z,7.36
2023-01-20T03:44:02.154Z,7.26
2023-01-20T03:46:45.554Z,7.24
2023-01-20T03:49:33.584Z,7.23
2023-01-20T03:52:03.997Z,7.24
2023-01-20T03:54:38.615Z,7.23
2023-01-20T03:57:11.967Z,7.18
2023-01-20T03:59:39.451Z,7.10
2023-01-20T04:02:07.646Z,7.09
2023-01-20T04:04:35.828Z,7.11
2023-01-20T04:07:05.006Z,7.14
2023-01-20T04:09:33.393Z,7.13
2023-01-20T04:12:00.268Z,7.10
2023-01-20T04:14:27.364Z,7.01
2023-01-20T04:16:58.161Z,6.98
2023-01-20T04:19:25.633Z,6.97
2023-01-20T04:22:14.553Z,6.95
2023-01-20T04:24:44.733Z,6.90
2023-01-20T04:27:11.611Z,6.83
2023-01-20T04:29:38.764Z,6.82
2023-01-20T04:32:06.019Z,6.84
2023-01-20T04:34:33.121Z,6.85
2023-01-20T04:37:00.483Z,6.85
2023-01-20T04:39:27.568Z,6.81
2023-01-20T04:41:54.577Z,6.82
2023-01-20T04:44:21.683Z,6.84
2023-01-20T04:46:48.631Z,6.88
2023-01-20T04:49:15.693Z,6.91
2023-01-20T04:51:42.690Z,6.88
2023-01-20T04:54:09.692Z,6.87
2023-01-20T04:56:36.587Z,6.90
2023-01-20T04:59:03.674Z,6.94
2023-01-20T05:01:30.901Z,6.97
2023-01-20T05:03:57.857Z,6.95
2023-01-20T05:06:24.951Z,6.90
2023-01-20T05:08:52.124Z,6.92
2023-01-20T05:11:19.432Z,6.97
2023-01-20T05:13:46.411Z,7.00
2023-01-20T05:16:14.119Z,6.99
2023-01-20T05:18:41.121Z,6.95
2023-01-20T05:21:09.035Z,6.96
2023-01-20T05:23:36.119Z,6.99
2023-01-20T05:26:03.054Z,7.01
2023-01-20T05:28:30.050Z,7.03
2023-01-20T05:30:57.204Z,7.06
2023-01-20T05:33:24.175Z,7.03
2023-01-20T05:35:51.131Z,7.05
2023-01-20T05:38:18.161Z,7.07
2023-01-20T05:40:45.074Z,7.08
2023-01-20T05:43:13.068Z,7.05
2023-01-20T05:45:40.232Z,7.04
2023-01-20T05:48:07.152Z,7.07
2023-01-20T05:50:34.421Z,7.10
2023-01-20T05:53:01.602Z,7.12
2023-01-20T05:55:28.488Z,7.12
2023-01-20T05:57:55.525Z,7.09
2023-01-20T06:00:22.843Z,7.09
2023-01-20T06:02:49.827Z,7.10
2023-01-20T06:05:17.480Z,7.09
2023-01-20T06:07:44.859Z,7.06
2023-01-20T06:10:11.829Z,6.97
2023-01-20T06:12:38.940Z,6.91
2023-01-20T06:15:06.714Z,6.89
2023-01-20T06:17:33.754Z,6.90
2023-01-20T06:20:00.731Z,6.87
2023-01-20T06:22:27.878Z,6.81
2023-01-20T06:24:54.992Z,6.79
2023-01-20T06:27:22.005Z,6.81
2023-01-20T06:29:50.942Z,6.83
2023-01-20T06:32:17.903Z,6.81
2023-01-20T06:34:45.047Z,6.76
2023-01-20T06:37:12.076Z,6.76
2023-01-20T06:39:40.537Z,6.79
2023-01-20T06:42:07.713Z,6.83
2023-01-20T06:44:34.745Z,6.86
2023-01-20T06:47:01.703Z,6.85
2023-01-20T06:49:28.755Z,6.84
2023-01-20T06:51:55.847Z,6.89
2023-01-20T06:54:22.854Z,6.95
2023-01-20T06:56:50.086Z,7.00
2023-01-20T06:59:17.142Z,7.03
2023-01-20T07:01:44.171Z,7.04
2023-01-20T07:04:13.866Z,7.10
2023-01-20T07:06:41.006Z,7.16
2023-01-20T07:09:10.030Z,7.18
2023-01-20T07:11:37.348Z,7.16
2023-01-20T07:14:04.870Z,7.13
2023-01-20T07:16:31.857Z,7.19
2023-01-20T07:18:58.919Z,7.24
2023-01-20T07:21:26.703Z,7.27
2023-01-20T07:23:53.752Z,7.29
2023-01-20T07:26:26.514Z,7.29
2023-01-20T07:28:53.842Z,7.31
2023-01-20T07:31:22.600Z,7.30
2023-01-20T07:33:49.975Z,7.23
2023-01-20T07:36:17.128Z,7.17
2023-01-20T07:38:47.378Z,7.21
2023-01-20T07:41:18.303Z,7.29
2023-01-20T07:43:46.230Z,7.33
2023-01-20T07:46:13.944Z,7.31
2023-01-20T07:48:41.188Z,7.29
2023-01-20T10:25:00.067Z,7.48
2023-01-20T10:27:28.819Z,7.67
2023-01-20T10:30:06.606Z,7.85
2023-01-20T10:32:38.162Z,8.01
2023-01-20T10:35:17.406Z,8.16
2023-01-20T10:37:44.714Z,8.31
2023-01-20T10:40:17.815Z,8.45
2023-01-20T10:42:49.101Z,8.55
2023-01-20T10:45:20.247Z,8.73
2023-01-20T10:48:11.304Z,8.91
2023-01-20T10:50:42.440Z,9.08
2023-01-20T10:53:25.087Z,9.10
2023-01-20T10:56:19.027Z,9.11
2023-01-20T10:58:47.777Z,9.18
2023-01-20T11:01:20.175Z,9.20
2023-01-20T11:03:48.150Z,9.18
2023-01-20T11:06:23.429Z,9.11
2023-01-20T11:08:50.946Z,9.14
2023-01-20T11:11:20.553Z,9.18
2023-01-20T11:13:47.876Z,9.22
2023-01-20T11:16:23.034Z,9.22
2023-01-20T11:19:08.557Z,9.29
2023-01-20T11:21:37.093Z,9.34
2023-01-20T11:24:29.776Z,9.41
2023-01-20T11:27:07.178Z,9.43
2023-01-20T11:29:40.115Z,9.45
2023-01-20T11:32:25.157Z,9.55
2023-01-20T11:34:52.270Z,9.65
2023-01-20T11:37:20.786Z,9.70
2023-01-20T11:39:50.698Z,9.72
2023-01-20T11:42:25.554Z,9.71
2023-01-20T11:44:54.051Z,9.78
2023-01-20T11:47:28.226Z,9.85
2023-01-20T11:50:04.322Z,9.94
2023-01-20T11:52:31.706Z,10.02
2023-01-20T11:55:19.462Z,10.14
2023-01-20T11:57:53.039Z,10.32
2023-01-20T12:00:20.041Z,10.41
2023-01-20T12:03:05.992Z,10.45
2023-01-20T12:06:10.688Z,10.45
2023-01-20T12:09:01.047Z,10.48
2023-01-20T12:11:31.933Z,10.53
2023-01-20T12:14:20.952Z,10.56
2023-01-20T12:17:03.316Z,10.55
2023-01-20T12:19:38.050Z,10.53
2023-01-20T12:22:09.770Z,10.59
2023-01-20T12:25:22.168Z,10.65
2023-01-20T12:27:57.952Z,10.67
2023-01-20T12:30:39.612Z,10.67
2023-01-20T12:33:20.593Z,10.76
2023-01-20T12:36:20.144Z,10.86
2023-01-20T12:39:12.125Z,10.86
2023-01-20T12:41:57.954Z,10.86
2023-01-20T12:44:37.108Z,10.94
2023-01-20T12:47:43.053Z,11.02
2023-01-20T12:50:28.744Z,11.02
2023-01-20T12:53:18.274Z,10.99
2023-01-20T12:56:11.128Z,11.02
2023-01-20T12:58:39.854Z,11.05
2023-01-20T13:01:10.494Z,11.02
2023-01-20T13:03:56.720Z,10.98
2023-01-20T13:06:46.130Z,11.02
2023-01-20T13:09:48.594Z,11.07
2023-01-20T13:12:22.637Z,11.06
2023-01-20T13:14:53.384Z,11.00
2023-01-20T13:17:25.951Z,11.00
2023-01-20T13:19:54.411Z,11.07
2023-01-20T13:22:23.555Z,11.11
2023-01-20T13:24:55.043Z,11.12
2023-01-20T13:27:30.602Z,11.17
2023-01-20T13:29:58.939Z,11.21
2023-01-20T13:32:26.991Z,11.20
2023-01-20T13:34:53.912Z,11.16
2023-01-20T13:37:27.066Z,11.21
2023-01-20T13:39:54.968Z,11.23
2023-01-20T13:42:27.986Z,11.21
2023-01-20T13:45:14.956Z,11.18
2023-01-20T13:48:00.667Z,11.20
2023-01-20T13:50:38.286Z,11.19
2023-01-20T13:53:11.454Z,11.17
2023-01-20T13:55:45.024Z,11.12
2023-01-20T13:58:19.509Z,11.13
2023-01-20T14:00:50.836Z,11.15
2023-01-20T14:03:30.676Z,11.13
2023-01-20T14:05:59.886Z,11.09
2023-01-20T14:08:31.182Z,11.04
2023-01-20T14:11:23.681Z,11.05
2023-01-20T14:13:54.667Z,11.06
2023-01-20T14:16:24.939Z,11.01
2023-01-20T14:18:56.890Z,10.95
2023-01-20T14:21:25.430Z,10.91
2023-01-20T14:23:52.606Z,10.91
2023-01-20T14:26:37.344Z,10.91
2023-01-20T14:29:04.308Z,10.83
2023-01-20T14:31:37.622Z,10.73
2023-01-20T14:34:26.423Z,10.72
2023-01-20T14:36:53.671Z,10.70
2023-01-20T14:39:25.196Z,10.65
2023-01-20T14:41:59.679Z,10.57
2023-01-20T14:44:32.596Z,10.49
2023-01-20T14:47:01.904Z,10.47
2023-01-20T14:49:34.597Z,10.47
2023-01-20T14:52:01.791Z,10.44
2023-01-20T14:54:36.663Z,10.37
2023-01-20T14:57:31.069Z,10.31
2023-01-20T15:00:23.793Z,10.33
2023-01-20T15:03:11.983Z,10.32
2023-01-20T15:06:00.952Z,10.24
2023-01-20T15:08:56.693Z,10.17
2023-01-20T15:11:27.186Z,10.17
2023-01-20T15:13:57.093Z,10.15
2023-01-20T15:16:31.404Z,10.13
2023-01-20T15:19:14.731Z,10.06
2023-01-20T15:21:44.118Z,10.02
2023-01-20T15:24:17.113Z,10.03
2023-01-20T15:26:46.195Z,10.03
2023-01-20T15:29:24.443Z,9.97
2023-01-20T15:31:51.924Z,9.91
2023-01-20T15:34:18.976Z,9.91
2023-01-20T15:36:46.120Z,9.89
2023-01-20T15:39:17.137Z,9.82
2023-01-20T17:52:51.470Z,6.04
2023-01-20T17:55:19.558Z,6.14
2023-01-20T17:57:47.526Z,6.28
2023-01-20T18:00:16.133Z,6.40
2023-01-20T18:02:43.252Z,6.49
2023-01-20T18:05:10.263Z,6.54
2023-01-20T18:07:37.912Z,6.56
2023-01-20T18:10:05.957Z,6.62
2023-01-20T18:12:32.971Z,6.65
2023-01-20T18:14:59.933Z,6.70
2023-01-20T18:17:27.956Z,6.68
2023-01-20T18:19:55.161Z,6.64
2023-01-20T18:22:22.128Z,6.67
2023-01-20T18:24:49.012Z,6.69
2023-01-20T18:27:18.775Z,6.66
2023-01-20T18:29:46.678Z,6.61
2023-01-20T18:32:13.557Z,6.64
2023-01-20T18:34:40.491Z,6.63
2023-01-20T18:37:07.524Z,6.59
2023-01-20T18:39:36.669Z,6.57
2023-01-20T18:42:03.744Z,6.58
2023-01-20T18:44:30.690Z,6.55
2023-01-20T18:46:57.698Z,6.49
2023-01-20T18:49:24.721Z,6.52
2023-01-20T18:51:51.684Z,6.52
2023-01-20T18:54:21.189Z,6.49
2023-01-20T18:56:48.245Z,6.41
2023-01-20T18:59:16.519Z,6.42
2023-01-20T19:01:43.716Z,6.41
2023-01-20T19:04:13.037Z,6.35
2023-01-20T19:06:41.666Z,6.30
2023-01-20T19:09:08.990Z,6.29
2023-01-20T19:11:39.678Z,6.27
2023-01-20T19:14:07.920Z,6.21
2023-01-20T19:16:37.939Z,6.14
2023-01-20T19:19:06.327Z,6.13
2023-01-20T19:21:33.857Z,6.14
2023-01-20T19:24:01.666Z,6.07
2023-01-20T19:26:28.649Z,6.02
2023-01-20T19:28:57.410Z,6.00
2023-01-20T19:31:24.744Z,5.96
2023-01-20T19:33:52.948Z,5.89
2023-01-20T19:36:20.092Z,5.88
2023-01-20T19:38:47.273Z,5.86
2023-01-20T19:41:16.199Z,5.82
2023-01-20T19:43:43.737Z,5.73
2023-01-20T19:46:13.014Z,5.70
2023-01-20T19:48:40.100Z,5.68
2023-01-20T19:51:16.655Z,5.62
2023-01-20T19:53:43.749Z,5.53
2023-01-20T19:56:11.423Z,5.50
2023-01-20T19:58:38.932Z,5.50
2023-01-20T20:01:09.783Z,5.44
2023-01-20T20:03:38.160Z,5.37
2023-01-20T20:06:05.947Z,5.35
2023-01-20T20:08:33.755Z,5.34
2023-01-20T20:11:00.795Z,5.31
2023-01-20T20:13:28.934Z,5.23
2023-01-20T20:16:03.225Z,5.20
2023-01-20T20:18:31.344Z,5.21
2023-01-20T20:20:58.539Z,5.15
2023-01-20T20:23:25.637Z,5.09
2023-01-20T20:25:56.285Z,5.10
2023-01-20T20:28:24.167Z,5.09
2023-01-20T20:30:52.739Z,5.02
2023-01-20T20:33:19.816Z,4.92
2023-01-20T20:35:47.725Z,4.93
2023-01-20T20:38:14.793Z,4.92
2023-01-20T20:40:43.008Z,4.92
2023-01-20T20:43:09.922Z,4.86
2023-01-20T20:45:36.860Z,4.82
2023-01-20T20:48:04.677Z,4.83
2023-01-20T20:50:32.877Z,4.81
2023-01-20T20:53:00.548Z,4.74
2023-01-20T20:55:29.488Z,4.71
2023-01-20T20:57:56.898Z,4.69
2023-01-20T21:00:28.165Z,4.63
2023-01-20T21:02:56.364Z,4.54
2023-01-20T21:05:24.417Z,4.48
2023-01-20T21:07:51.378Z,4.47
2023-01-20T21:10:18.862Z,4.42
2023-01-20T21:12:46.997Z,4.34
2023-01-20T21:15:14.026Z,4.31
2023-01-20T21:17:41.437Z,4.29
2023-01-20T21:20:09.253Z,4.25
2023-01-20T21:22:36.218Z,4.18
2023-01-20T21:25:03.281Z,4.17
2023-01-20T21:27:33.360Z,4.17
2023-01-20T21:30:00.252Z,4.12
2023-01-20T21:32:27.274Z,4.06
2023-01-20T21:34:55.172Z,4.06
2023-01-20T21:37:22.173Z,4.05
2023-01-20T21:39:49.221Z,3.99
2023-01-20T21:42:16.305Z,3.99
2023-01-20T21:44:43.321Z,3.99
2023-01-20T21:47:13.253Z,3.94
2023-01-20T21:49:58.660Z,3.88
2023-01-20T21:52:45.352Z,3.89
2023-01-20T21:55:15.981Z,3.87
2023-01-20T21:57:43.179Z,3.79
2023-01-20T22:00:10.947Z,3.79
2023-01-20T22:02:41.043Z,3.80
2023-01-20T22:05:08.413Z,3.75
2023-01-20T22:07:35.520Z,3.69
2023-01-20T22:10:02.591Z,3.69
2023-01-20T22:12:33.660Z,3.71
2023-01-20T22:15:01.921Z,3.67
2023-01-20T22:17:29.041Z,3.62
2023-01-20T22:19:56.038Z,3.59
2023-01-20T22:22:23.703Z,3.58
2023-01-20T22:24:50.815Z,3.52
2023-01-20T22:27:17.733Z,3.45
2023-01-20T22:29:44.740Z,3.45
2023-01-20T22:32:11.776Z,3.46
2023-01-20T22:34:38.732Z,3.39
2023-01-20T22:37:06.044Z,3.31
2023-01-20T22:39:33.140Z,3.31
2023-01-20T22:42:00.056Z,3.31
2023-01-20T22:44:27.181Z,3.25
2023-01-20T22:46:54.312Z,3.18
2023-01-20T22:49:21.237Z,3.19
2023-01-20T22:51:48.313Z,3.18
2023-01-20T22:54:15.263Z,3.09
2023-01-20T22:56:42.233Z,3.03
2023-01-20T22:59:09.999Z,3.03
2023-01-20T23:01:37.390Z,3.01
2023-01-20T23:04:05.319Z,2.95
2023-01-20T23:06:34.751Z,2.93
2023-01-20T23:09:04.792Z,2.89
2023-01-20T23:11:31.920Z,2.83
2023-01-20T23:13:59.276Z,2.84
2023-01-20T23:16:26.303Z,2.84
2023-01-20T23:18:53.337Z,2.78
2023-01-20T23:21:20.611Z,2.74
2023-01-20T23:23:54.076Z,2.75
2023-01-20T23:26:25.651Z,2.71
2023-01-20T23:28:53.682Z,2.65
2023-01-20T23:31:20.767Z,2.68
2023-01-20T23:33:47.887Z,2.68
2023-01-20T23:36:16.007Z,2.65
2023-01-20T23:38:43.065Z,2.60
2023-01-20T23:41:10.827Z,2.62
2023-01-20T23:43:37.851Z,2.60
2023-01-20T23:46:05.726Z,2.52
2023-01-20T23:48:33.294Z,2.52
2023-01-20T23:51:00.344Z,2.52
2023-01-20T23:53:28.178Z,2.50
2023-01-20T23:56:12.994Z,2.45
2023-01-20T23:58:40.296Z,2.42
